此METAR来自2022年8月15日 03:00. 最近的
罗盘
风向 的 风向 170° Edmonton International Airport 2/20
风: 3 kt, 1 beaufort

2 kt

2 kt
改变
0 5.000 10.000 15.000 20.000
FEW 19.000 ft
METAR CYEG 150900Z 17003KT 20SM FEW190 10/10 A3003 RMK AC1 AC TR SLP175

METAR Edmonton International Airport - CYEG/YEG

Edmonton International Airport是Edmonton,加拿大中的大型机场。 该机场有2条跑道: 2/20 和 12/30. 该领域的国际民航组织标志是CYEG 它的国际航空运输协会代码是YEG.

这份报告是针对2022年8月15日 03:00, 当地时间在Edmonton International Airport进行的。

机场观察

风向为170°,速度为3 kt。

可见度为20 mi。

有几云在19.000 ft的高度。 没有观察到天花板。

温度为10 °C,阵风为8 °C。 露点为10 °C,相对湿度为100%。 海平面上的气压为30,03 inHg (QNH)。

白天

今天,太阳从07:33升起,在19:16降落。 这适用于Edmonton International Airport,世界夏令时可能有所不同。 当地时间与世界标准时间之间的时差为-6 小时。 夏令时目前正在进行中。

公司介绍

我们没有关于这个机场的公司信息。

体会

到Vliegles.nl去找飞行课程,跳伞和其他飞行体验。 浏览页面,了解Edmonton International Airport附近所有可用的活动。 你也可以使用搜索功能来寻找你所在地附近的特定飞行课程、跳伞或其他飞行体验。

跑道

Id 标题 侧风 逆风 侧风 %
2/20 034°-214° 2 kt 2 kt 69 %
12/30 135°-315° 2 kt 2 kt 57 %

逆风成分最大的方向会被突出显示,并用于横风计算。 这并不一定意味着这个方向在使用。

乌云

19.000 ft FEW 几云

温度 & 天气

温度 10 °C
露点 10 °C
相对湿度 100%
风寒 8 °C
Kp-index 1 (0-9)

评论

SLP175海平面压力为30,05 inHg (30,05 inHg)
AC1 AC TR

白天

日出
06:15
中午
13:38
日落
21:02

小工具

你想在你的网站上有一个关于Edmonton International Airport的当前航空天气(METAR)的小部件吗?

</> 显示HTML代码

我们和第三方通过cookies跟踪您在我们网站上的上网行为。如果您继续,我们认为您同意我们的cookie政策。 了解更多